Ashley, Louisiana
Current Conditions -  °F | °C
As of 6:53 PM on Thursday 27 Nov 2014 (Local Time) from KTVR Reporting Station
Clear Clear  
Wind Chill:   Ceiling: Unl
Heat Index:   Visibility: 10mi
Dew Point: -1°   Wind: 7mph
Humidity: 70%   Direction: 70°ENE
Pressure: 30.49"   Gusts: NA
Location:  32.3599°N, 91.2529°W
Report Text: KTVR 280053Z AUTO 07006KT 10SM CLR 04/M01 A3049 RMK AO2 SLP332 T00441006
Loading
Personal Weather Stations






























Interactive Weather Map New forecast layout! Learn more

10-Day Weather Forecast

Advertisements
Track Severe Weather on mobile